createdAt,value
2023-04-28T00:00:53.990Z,100525.53
2023-04-28T00:03:21.813Z,100522.78
2023-04-28T00:05:49.701Z,100511.31
2023-04-28T00:08:18.971Z,100501.38
2023-04-28T00:10:46.863Z,100509.84
2023-04-28T00:13:14.516Z,100506.53
2023-04-28T00:15:42.161Z,100490.63
2023-04-28T00:18:09.880Z,100478.22
2023-04-28T00:20:37.536Z,100483.22
2023-04-28T00:23:05.351Z,100488.09
2023-04-28T00:25:34.434Z,100490.06
2023-04-28T00:28:02.945Z,100476.59
2023-04-28T00:30:31.237Z,100463.19
2023-04-28T00:32:58.974Z,100465.41
2023-04-28T00:35:26.687Z,100461.41
2023-04-28T00:37:54.342Z,100486.41
2023-04-28T00:40:22.186Z,100472.75
2023-04-28T00:42:51.260Z,100457.22
2023-04-28T00:45:18.905Z,100450.19
2023-04-28T00:48:17.503Z,100448.34
2023-04-28T00:50:45.994Z,100451.97
2023-04-28T00:53:14.157Z,100438.88
2023-04-28T00:55:41.901Z,100437.69
2023-04-28T00:58:11.513Z,100441.13
2023-04-28T01:00:39.423Z,100428.16
2023-04-28T01:03:08.044Z,100436.44
2023-04-28T01:05:36.414Z,100425.97
2023-04-28T01:08:04.777Z,100422.81
2023-04-28T01:10:32.924Z,100416.66
2023-04-28T01:13:00.585Z,100419.19
2023-04-28T01:15:29.968Z,100419.66
2023-04-28T01:17:57.642Z,100405.28
2023-04-28T01:20:25.428Z,100409.16
2023-04-28T01:22:55.175Z,100414.84
2023-04-28T01:25:24.174Z,100414.38
2023-04-28T01:27:52.799Z,100400.78
2023-04-28T01:30:21.053Z,100401.50
2023-04-28T01:32:48.820Z,100399.00
2023-04-28T01:35:16.720Z,100393.97
2023-04-28T01:37:44.344Z,100403.97
2023-04-28T01:40:13.156Z,100389.13
2023-04-28T01:42:42.162Z,100385.19
2023-04-28T01:45:11.131Z,100393.09
2023-04-28T01:47:38.949Z,100377.25
2023-04-28T01:55:52.946Z,100383.06
2023-04-28T01:58:22.025Z,100365.69
2023-04-28T02:00:49.710Z,100387.06
2023-04-28T02:03:17.825Z,100366.72
2023-04-28T02:05:45.786Z,100372.25
2023-04-28T02:08:13.445Z,100363.88
2023-04-28T02:10:41.534Z,100360.88
2023-04-28T02:13:09.201Z,100357.38
2023-04-28T02:15:42.284Z,100363.13
2023-04-28T02:18:10.070Z,100363.53
2023-04-28T02:20:37.807Z,100351.31
2023-04-28T02:23:05.510Z,100360.41
2023-04-28T02:25:33.181Z,100335.09
2023-04-28T02:28:00.856Z,100330.34
2023-04-28T02:30:28.510Z,100337.25
2023-04-28T02:32:57.677Z,100338.09
2023-04-28T02:35:25.413Z,100333.75
2023-04-28T02:37:53.612Z,100337.59
2023-04-28T02:40:21.424Z,100332.78
2023-04-28T02:42:49.101Z,100342.63
2023-04-28T02:45:16.810Z,100323.47
2023-04-28T02:47:44.521Z,100329.69
2023-04-28T02:50:13.657Z,100334.88
2023-04-28T02:52:41.313Z,100322.41
2023-04-28T02:55:09.788Z,100333.16
2023-04-28T02:57:37.481Z,100342.22
2023-04-28T03:00:06.543Z,100330.25
2023-04-28T03:02:34.391Z,100322.97
2023-04-28T03:05:02.326Z,100315.28
2023-04-28T03:07:31.494Z,100326.91
2023-04-28T03:09:59.162Z,100315.50
2023-04-28T03:12:26.858Z,100318.53
2023-04-28T03:14:54.622Z,100322.91
2023-04-28T03:17:22.325Z,100303.06
2023-04-28T03:19:50.024Z,100310.25
2023-04-28T03:22:17.697Z,100306.91
2023-04-28T03:24:47.023Z,100322.66
2023-04-28T03:27:14.706Z,100320.97
2023-04-28T03:29:42.383Z,100315.94
2023-04-28T03:32:10.423Z,100323.84
2023-04-28T03:34:38.356Z,100308.13
2023-04-28T03:37:06.387Z,100314.66
2023-04-28T03:39:34.089Z,100314.25
2023-04-28T03:42:03.265Z,100322.50
2023-04-28T03:44:31.418Z,100309.84
2023-04-28T03:46:59.162Z,100308.81
2023-04-28T03:49:26.971Z,100309.44
2023-04-28T03:51:54.657Z,100309.13
2023-04-28T03:54:22.367Z,100299.38
2023-04-28T03:56:50.133Z,100293.91
2023-04-28T03:59:19.221Z,100301.75
2023-04-28T04:01:46.919Z,100284.44
2023-04-28T04:04:14.956Z,100279.72
2023-04-28T04:06:42.889Z,100288.19
2023-04-28T04:09:10.571Z,100273.34
2023-04-28T04:11:38.315Z,100276.66
2023-04-28T04:14:06.293Z,100258.03
2023-04-28T04:16:35.374Z,100265.03
2023-04-28T04:19:03.087Z,100264.97
2023-04-28T04:21:31.782Z,100271.28
2023-04-28T04:23:59.509Z,100270.94
2023-04-28T04:26:27.191Z,100247.97
2023-04-28T04:28:54.848Z,100243.47
2023-04-28T04:31:22.844Z,100242.84
2023-04-28T04:33:52.024Z,100257.63
2023-04-28T04:36:19.778Z,100235.75
2023-04-28T04:38:47.436Z,100248.31
2023-04-28T04:41:15.217Z,100240.19
2023-04-28T04:43:42.899Z,100235.06
2023-04-28T04:46:10.735Z,100231.28
2023-04-28T04:48:38.495Z,100236.09
2023-04-28T04:51:07.584Z,100245.91
2023-04-28T04:53:35.273Z,100265.50
2023-04-28T04:56:03.058Z,100257.16
2023-04-28T04:58:30.833Z,100245.16
2023-04-28T05:00:58.536Z,100241.84
2023-04-28T05:03:26.294Z,100231.34
2023-04-28T05:05:54.186Z,100235.75
2023-04-28T05:08:23.277Z,100253.06
2023-04-28T05:10:50.974Z,100239.53
2023-04-28T05:13:18.767Z,100240.69
2023-04-28T05:15:46.471Z,100221.34
2023-04-28T05:18:14.317Z,100227.16
2023-04-28T05:20:42.014Z,100204.00
2023-04-28T05:23:10.612Z,100212.16
2023-04-28T05:25:39.737Z,100222.44
2023-04-28T05:28:09.414Z,100217.84
2023-04-28T05:30:37.142Z,100215.94
2023-04-28T05:33:04.919Z,100239.16
2023-04-28T05:35:32.686Z,100240.16
2023-04-28T05:38:00.405Z,100222.44
2023-04-28T05:40:28.946Z,100222.88
2023-04-28T05:42:58.005Z,100211.06
2023-04-28T05:45:26.136Z,100217.22
2023-04-28T05:47:53.877Z,100215.38
2023-04-28T05:50:21.802Z,100215.94
2023-04-28T05:52:49.479Z,100215.13
2023-04-28T05:55:17.448Z,100223.38
2023-04-28T05:57:52.531Z,100226.69
2023-04-28T06:00:22.884Z,100215.84
2023-04-28T06:02:51.059Z,100224.03
2023-04-28T06:05:19.298Z,100206.66
2023-04-28T06:07:49.688Z,100213.84
2023-04-28T06:10:17.994Z,100200.97
2023-04-28T06:12:45.629Z,100191.78
2023-04-28T06:15:13.342Z,100185.03
2023-04-28T06:17:42.531Z,100186.41
2023-04-28T06:20:13.750Z,100198.28
2023-04-28T06:22:41.612Z,100201.31
2023-04-28T06:25:10.282Z,100187.19
2023-04-28T06:27:38.021Z,100196.94
2023-04-28T06:30:06.929Z,100189.00
2023-04-28T06:32:34.625Z,100182.22
2023-04-28T06:35:03.693Z,100186.19
2023-04-28T06:37:31.491Z,100193.59
2023-04-28T06:39:59.116Z,100193.56
2023-04-28T06:42:27.171Z,100185.47
2023-04-28T06:44:54.917Z,100194.22
2023-04-28T06:47:22.837Z,100182.16
2023-04-28T06:49:50.938Z,100186.56
2023-04-28T06:52:27.042Z,100187.41
2023-04-28T06:54:57.740Z,100174.88
2023-04-28T06:57:25.449Z,100175.22
2023-04-28T06:59:53.460Z,100163.84
2023-04-28T07:02:21.540Z,100154.19
2023-04-28T07:04:49.390Z,100153.69
2023-04-28T07:07:17.285Z,100148.34
2023-04-28T07:09:46.441Z,100144.56
2023-04-28T07:12:14.331Z,100139.59
2023-04-28T07:14:41.984Z,100148.59
2023-04-28T07:17:09.729Z,100146.97
2023-04-28T07:19:37.411Z,100158.97
2023-04-28T07:22:05.070Z,100159.72
2023-04-28T07:24:32.782Z,100161.69
2023-04-28T07:27:03.887Z,100169.97
2023-04-28T07:29:34.203Z,100174.06
2023-04-28T07:32:04.161Z,100160.69
2023-04-28T07:34:32.921Z,100169.94
2023-04-28T07:37:00.687Z,100164.97
2023-04-28T07:39:28.332Z,100165.63
2023-04-28T07:41:58.049Z,100175.91
2023-04-28T07:44:27.109Z,100168.28
2023-04-28T07:46:54.916Z,100177.66
2023-04-28T07:49:22.637Z,100170.50
2023-04-28T07:51:52.223Z,100167.78
2023-04-28T07:54:20.086Z,100173.25
2023-04-28T07:56:48.060Z,100181.91
2023-04-28T07:59:15.875Z,100178.16
2023-04-28T08:01:44.963Z,100169.69
2023-04-28T08:04:12.919Z,100171.53
2023-04-28T08:06:41.517Z,100176.72
2023-04-28T08:09:09.247Z,100185.81
2023-04-28T08:11:36.963Z,100161.09
2023-04-28T08:14:04.718Z,100161.81
2023-04-28T08:16:34.426Z,100136.91
2023-04-28T08:19:03.646Z,100129.22
2023-04-28T08:21:32.813Z,100126.47
2023-04-28T08:24:00.602Z,100117.06
2023-04-28T08:26:28.432Z,100131.25
2023-04-28T08:28:56.097Z,100127.78
2023-04-28T08:31:23.901Z,100123.00
2023-04-28T08:33:51.781Z,100131.28
2023-04-28T08:36:21.246Z,100131.06
2023-04-28T08:38:49.240Z,100153.00
2023-04-28T08:41:17.846Z,100160.22
2023-04-28T08:43:45.722Z,100155.25
2023-04-28T08:46:15.946Z,100136.41
2023-04-28T08:48:45.756Z,100157.13
2023-04-28T08:51:16.468Z,100139.66
2023-04-28T08:56:23.427Z,100152.28
2023-04-28T08:58:51.788Z,100144.81
2023-04-28T09:01:19.440Z,100142.53
2023-04-28T09:03:48.136Z,100146.91
2023-04-28T09:06:15.967Z,100166.88
2023-04-28T09:08:43.892Z,100154.34
2023-04-28T09:11:13.757Z,100140.34
2023-04-28T09:13:42.293Z,100136.50
2023-04-28T09:16:09.995Z,100140.16
2023-04-28T09:18:37.748Z,100136.50
2023-04-28T09:21:06.989Z,100132.75
2023-04-28T09:23:37.190Z,100137.03
2023-04-28T09:26:06.487Z,100124.25
2023-04-28T09:28:36.655Z,100128.44
2023-04-28T09:31:05.641Z,100129.06
2023-04-28T09:33:33.775Z,100137.25
2023-04-28T09:36:01.542Z,100127.31
2023-04-28T09:41:14.959Z,100132.47
2023-04-28T09:43:44.021Z,100127.00
2023-04-28T09:46:11.745Z,100114.69
2023-04-28T09:48:40.112Z,100114.72
2023-04-28T09:51:11.594Z,100115.25
2023-04-28T09:53:40.720Z,100110.09
2023-04-28T09:56:08.839Z,100106.03
2023-04-28T09:58:41.293Z,100116.19
2023-04-28T10:01:14.518Z,100101.31
2023-04-28T10:03:43.237Z,100098.78
2023-04-28T10:06:11.579Z,100098.59
2023-04-28T10:08:40.373Z,100105.16
2023-04-28T10:11:08.492Z,100102.69
2023-04-28T10:13:36.747Z,100117.25
2023-04-28T10:16:05.699Z,100112.13
2023-04-28T10:18:36.483Z,100109.63
2023-04-28T10:21:05.744Z,100108.19
2023-04-28T10:23:54.352Z,100100.59
2023-04-28T10:26:23.825Z,100099.09
2023-04-28T10:28:52.992Z,100103.03
2023-04-28T10:31:22.787Z,100087.06
2023-04-28T10:33:52.256Z,100079.59
2023-04-28T10:36:50.939Z,100087.97
2023-04-28T10:39:21.378Z,100085.09
2023-04-28T10:41:50.010Z,100076.53
2023-04-28T10:44:45.171Z,100073.34
2023-04-28T10:47:15.790Z,100080.41
2023-04-28T10:50:11.356Z,100054.22
2023-04-28T10:52:52.381Z,100086.56
2023-04-28T10:55:36.555Z,100073.63
2023-04-28T10:58:33.660Z,100091.19
2023-04-28T11:01:25.749Z,100060.44
2023-04-28T11:04:00.951Z,100070.88
2023-04-28T11:06:32.493Z,100059.53
2023-04-28T11:09:02.320Z,100043.97
2023-04-28T11:11:30.574Z,100040.22
2023-04-28T11:14:31.601Z,100046.56
2023-04-28T11:17:02.015Z,100037.31
2023-04-28T11:19:33.172Z,100036.19
2023-04-28T11:22:04.374Z,100042.28
2023-04-28T11:24:32.711Z,100030.56
2023-04-28T11:27:01.354Z,100030.78
2023-04-28T11:29:49.189Z,100032.34
2023-04-28T11:32:16.956Z,100022.03
2023-04-28T11:34:52.768Z,100020.25
2023-04-28T11:37:22.954Z,100015.03
2023-04-28T11:39:51.165Z,100028.38
2023-04-28T11:42:19.158Z,100020.09
2023-04-28T11:44:51.829Z,100032.06
2023-04-28T11:50:13.010Z,100024.50
2023-04-28T11:52:53.007Z,100029.22
2023-04-28T11:55:21.760Z,100011.94
2023-04-28T11:57:49.581Z,100034.53
2023-04-28T12:03:08.890Z,100035.38
2023-04-28T12:05:39.056Z,100032.06
2023-04-28T12:08:08.420Z,100030.91
2023-04-28T12:10:36.140Z,100032.47
2023-04-28T12:13:16.718Z,100023.53
2023-04-28T12:15:44.466Z,100030.50
2023-04-28T12:18:12.652Z,100049.25
2023-04-28T12:20:41.164Z,100029.47
2023-04-28T12:23:10.590Z,100026.03
2023-04-28T12:25:44.773Z,100032.34
2023-04-28T12:28:12.669Z,100030.53
2023-04-28T12:30:42.262Z,100022.34
2023-04-28T12:33:23.568Z,100023.13
2023-04-28T12:35:51.409Z,100031.72
2023-04-28T12:38:20.666Z,100030.38
2023-04-28T12:40:48.429Z,100041.19
2023-04-28T12:43:16.280Z,100043.47
2023-04-28T12:45:43.990Z,100030.56
2023-04-28T12:48:11.852Z,100046.06
2023-04-28T12:50:39.766Z,100043.28
2023-04-28T12:53:07.505Z,100038.72
2023-04-28T12:55:36.617Z,100029.63
2023-04-28T12:58:04.730Z,100036.91
2023-04-28T13:00:32.559Z,100046.94
2023-04-28T13:03:03.162Z,100049.00
2023-04-28T13:05:31.103Z,100047.53
2023-04-28T13:07:59.519Z,100041.50
2023-04-28T13:10:27.356Z,100050.41
2023-04-28T13:12:56.435Z,100044.56
2023-04-28T13:15:24.277Z,100049.66
2023-04-28T13:17:52.016Z,100039.06
2023-04-28T13:20:19.848Z,100032.94
2023-04-28T13:22:56.495Z,100026.19
2023-04-28T13:25:24.208Z,100033.44
2023-04-28T13:27:52.221Z,100015.47
2023-04-28T13:30:22.076Z,100028.72
2023-04-28T13:32:49.963Z,100019.97
2023-04-28T13:35:17.747Z,100024.63
2023-04-28T13:37:46.119Z,100011.66
2023-04-28T13:40:14.177Z,100029.47
2023-04-28T13:42:41.936Z,100023.50
2023-04-28T13:45:10.451Z,100019.66
2023-04-28T13:47:39.916Z,100011.91
2023-04-28T13:50:08.709Z,100002.19
2023-04-28T13:52:36.554Z,100005.50
2023-04-28T13:55:04.652Z,100014.72
2023-04-28T13:57:32.540Z,100016.34
2023-04-28T14:00:22.281Z,99995.59
2023-04-28T14:02:51.876Z,100006.16
2023-04-28T14:05:19.812Z,100011.69
2023-04-28T14:07:47.520Z,99996.13
2023-04-28T14:10:15.214Z,99983.66
2023-04-28T14:12:43.392Z,99986.22
2023-04-28T14:15:11.484Z,99969.94
2023-04-28T14:17:39.196Z,99965.72
2023-04-28T14:20:11.672Z,99958.94
2023-04-28T14:22:48.620Z,99963.88
2023-04-28T14:25:16.405Z,99982.47
2023-04-28T14:27:44.084Z,99960.19
2023-04-28T14:30:12.396Z,99969.97
2023-04-28T14:32:40.258Z,99963.50
2023-04-28T14:35:10.687Z,99969.66
2023-04-28T14:38:01.572Z,99972.63
2023-04-28T14:40:29.197Z,99966.47
2023-04-28T14:42:56.927Z,99967.53
2023-04-28T14:45:25.022Z,99956.56
2023-04-28T14:47:53.410Z,99955.00
2023-04-28T14:50:22.683Z,99974.81
2023-04-28T14:52:50.817Z,99963.28
2023-04-28T14:55:18.506Z,99951.88
2023-04-28T14:57:47.074Z,99958.72
2023-04-28T15:00:15.999Z,99942.06
2023-04-28T15:02:43.881Z,99958.94
2023-04-28T15:05:12.673Z,99940.41
2023-04-28T15:07:42.084Z,99945.59
2023-04-28T15:10:10.230Z,99957.56
2023-04-28T15:12:37.908Z,99950.34
2023-04-28T15:15:06.102Z,99950.25
2023-04-28T15:17:34.265Z,99955.44
2023-04-28T15:20:02.282Z,99953.34
2023-04-28T15:22:30.282Z,99954.66
2023-04-28T15:24:59.342Z,99953.31
2023-04-28T15:27:27.196Z,99957.34
2023-04-28T15:29:54.950Z,99956.03
2023-04-28T15:32:23.543Z,99963.28
2023-04-28T15:34:51.910Z,99963.53
2023-04-28T15:37:43.111Z,99969.47
2023-04-28T15:40:14.610Z,99968.63
2023-04-28T15:42:44.999Z,99964.19
2023-04-28T15:45:13.410Z,99972.31
2023-04-28T15:47:42.564Z,99966.50
2023-04-28T15:50:11.234Z,99977.31
2023-04-28T15:55:45.640Z,99998.09
2023-04-28T15:58:13.570Z,99987.75
2023-04-28T16:00:42.247Z,100001.34
2023-04-28T16:03:10.198Z,99997.22
2023-04-28T16:05:38.809Z,99996.38
2023-04-28T16:08:06.598Z,100008.25
2023-04-28T16:10:34.374Z,99999.03
2023-04-28T16:13:05.263Z,100002.41
2023-04-28T16:15:34.178Z,99994.63
2023-04-28T16:18:02.097Z,99987.69
2023-04-28T16:20:30.277Z,99993.66
2023-04-28T16:22:57.964Z,100004.88
2023-04-28T16:25:25.793Z,99994.97
2023-04-28T16:27:53.553Z,100001.00
2023-04-28T16:30:22.929Z,100014.34
2023-04-28T16:32:50.641Z,99998.94
2023-04-28T16:35:18.377Z,100009.75
2023-04-28T16:37:46.180Z,100015.44
2023-04-28T16:40:14.313Z,100021.25
2023-04-28T16:42:43.541Z,100014.88
2023-04-28T16:45:12.073Z,100010.13
2023-04-28T16:47:43.278Z,100018.63
2023-04-28T16:50:11.932Z,100026.88
2023-04-28T16:52:39.762Z,100015.91
2023-04-28T16:55:08.916Z,100023.88
2023-04-28T16:57:36.653Z,100012.41
2023-04-28T17:00:06.126Z,100031.53
2023-04-28T17:02:34.460Z,100028.97
2023-04-28T17:05:18.179Z,100039.03
2023-04-28T17:07:45.906Z,100029.47
2023-04-28T17:10:13.796Z,100025.00
2023-04-28T17:12:42.774Z,100033.69
2023-04-28T17:15:15.109Z,100019.88
2023-04-28T17:17:42.843Z,100033.84
2023-04-28T17:20:12.029Z,100019.97
2023-04-28T17:22:41.190Z,100015.28
2023-04-28T17:25:10.012Z,100021.59
2023-04-28T17:27:37.840Z,100015.94
2023-04-28T17:30:06.420Z,100022.53
2023-04-28T17:32:34.480Z,100040.72
2023-04-28T17:35:02.169Z,100045.28
2023-04-28T17:37:31.407Z,100035.25
2023-04-28T17:40:00.777Z,100041.16
2023-04-28T17:42:30.210Z,100051.13
2023-04-28T17:44:57.881Z,100045.22
2023-04-28T17:47:25.679Z,100047.22
2023-04-28T17:49:53.524Z,100042.00
2023-04-28T17:52:21.186Z,100045.50
2023-04-28T17:54:49.214Z,100046.81
2023-04-28T17:57:18.906Z,100054.84
2023-04-28T17:59:50.969Z,100049.91
2023-04-28T18:02:19.754Z,100052.72
2023-04-28T18:04:47.694Z,100048.56
2023-04-28T18:07:15.468Z,100057.25
2023-04-28T18:09:43.231Z,100062.22
2023-04-28T18:12:10.931Z,100047.63
2023-04-28T18:14:41.132Z,100059.66
2023-04-28T18:17:08.961Z,100063.41
2023-04-28T18:19:37.031Z,100057.94
2023-04-28T18:22:05.310Z,100069.41
2023-04-28T18:24:33.400Z,100062.34
2023-04-28T18:27:02.246Z,100071.53
2023-04-28T18:29:30.187Z,100065.53
2023-04-28T18:31:59.337Z,100058.72
2023-04-28T18:34:27.435Z,100075.59
2023-04-28T18:36:55.251Z,100070.97
2023-04-28T18:39:23.097Z,100079.53
2023-04-28T18:41:51.508Z,100082.22
2023-04-28T18:44:20.173Z,100077.44
2023-04-28T18:46:47.921Z,100079.00
2023-04-28T18:49:17.468Z,100084.53
2023-04-28T18:51:45.280Z,100082.75
2023-04-28T18:54:15.809Z,100084.22
2023-04-28T18:56:44.371Z,100087.25
2023-04-28T18:59:12.291Z,100086.06
2023-04-28T19:01:40.077Z,100081.44
2023-04-28T19:04:08.343Z,100089.50
2023-04-28T19:06:37.666Z,100099.06
2023-04-28T19:09:05.315Z,100095.44
2023-04-28T19:11:33.032Z,100085.88
2023-04-28T19:14:01.324Z,100096.91
2023-04-28T19:16:29.022Z,100103.94
2023-04-28T19:18:56.718Z,100120.31
2023-04-28T19:21:24.520Z,100114.56
2023-04-28T19:23:54.291Z,100101.50
2023-04-28T19:26:22.003Z,100121.91
2023-04-28T19:28:49.708Z,100127.38
2023-04-28T19:31:17.481Z,100126.63
2023-04-28T19:33:45.176Z,100132.00
2023-04-28T19:36:12.843Z,100123.13
2023-04-28T19:38:40.686Z,100125.56
2023-04-28T19:41:09.950Z,100137.69
2023-04-28T19:43:37.809Z,100128.09
2023-04-28T19:46:05.718Z,100135.06
2023-04-28T19:48:33.414Z,100129.22
2023-04-28T19:51:01.107Z,100126.47
2023-04-28T19:53:28.893Z,100132.94
2023-04-28T19:55:57.641Z,100124.28
2023-04-28T19:58:26.769Z,100120.34
2023-04-28T20:00:54.690Z,100143.22
2023-04-28T20:03:22.608Z,100132.06
2023-04-28T20:05:50.347Z,100123.03
2023-04-28T20:08:19.521Z,100133.44
2023-04-28T20:10:47.835Z,100128.34
2023-04-28T20:13:16.110Z,100130.19
2023-04-28T20:15:45.272Z,100136.22
2023-04-28T20:18:12.954Z,100140.97
2023-04-28T20:20:40.924Z,100136.34
2023-04-28T20:23:08.587Z,100136.09
2023-04-28T20:25:37.480Z,100135.47
2023-04-28T20:28:05.396Z,100141.03
2023-04-28T20:30:33.172Z,100138.13
2023-04-28T20:33:02.231Z,100129.28
2023-04-28T20:35:32.143Z,100136.88
2023-04-28T20:37:59.837Z,100134.38
2023-04-28T20:40:27.848Z,100129.81
2023-04-28T20:42:56.732Z,100131.25
2023-04-28T20:45:24.899Z,100147.84
2023-04-28T20:47:53.944Z,100150.31
2023-04-28T20:50:24.265Z,100146.00
2023-04-28T20:52:51.945Z,100143.75
2023-04-28T20:55:19.703Z,100151.41
2023-04-28T20:57:47.451Z,100148.41
2023-04-28T21:00:16.055Z,100145.44
2023-04-28T21:02:43.976Z,100143.94
2023-04-28T21:05:11.915Z,100148.09
2023-04-28T21:07:41.025Z,100136.38
2023-04-28T21:10:10.544Z,100134.84
2023-04-28T21:12:38.329Z,100146.38
2023-04-28T21:15:07.172Z,100135.53
2023-04-28T21:17:34.887Z,100143.03
2023-04-28T21:20:03.599Z,100142.44
2023-04-28T21:22:31.417Z,100134.69
2023-04-28T21:25:00.671Z,100151.81
2023-04-28T21:27:28.411Z,100149.50
2023-04-28T21:29:56.204Z,100147.41
2023-04-28T21:32:23.980Z,100154.16
2023-04-28T21:34:51.681Z,100153.56
2023-04-28T21:37:53.228Z,100153.47
2023-04-28T21:40:22.672Z,100165.22
2023-04-28T21:42:51.015Z,100163.03
2023-04-28T21:45:18.882Z,100161.53
2023-04-28T21:47:46.697Z,100173.66
2023-04-28T21:50:14.454Z,100168.78
2023-04-28T21:52:42.238Z,100165.16
2023-04-28T21:55:10.497Z,100158.69
2023-04-28T21:57:39.557Z,100161.44
2023-04-28T22:00:10.776Z,100165.50
2023-04-28T22:02:39.058Z,100162.25
2023-04-28T22:05:06.946Z,100159.97
2023-04-28T22:07:34.768Z,100167.13
2023-04-28T22:10:02.537Z,100169.81
2023-04-28T22:12:30.218Z,100166.06
2023-04-28T22:15:00.195Z,100177.66
2023-04-28T22:17:27.952Z,100172.69
2023-04-28T22:19:55.645Z,100182.53
2023-04-28T22:22:23.347Z,100171.75
2023-04-28T22:24:52.316Z,100183.81
2023-04-28T22:27:20.057Z,100180.56
2023-04-28T22:29:47.768Z,100196.41
2023-04-28T22:32:17.007Z,100188.50
2023-04-28T22:34:44.676Z,100191.44
2023-04-28T22:37:12.485Z,100194.78
2023-04-28T22:39:40.136Z,100192.03
2023-04-28T22:42:08.441Z,100196.31
2023-04-28T22:44:36.575Z,100200.94
2023-04-28T22:47:05.013Z,100201.59
2023-04-28T22:49:34.019Z,100200.84
2023-04-28T22:52:01.709Z,100194.81
2023-04-28T22:54:29.385Z,100217.84
2023-04-28T22:56:57.059Z,100218.00
2023-04-28T22:59:24.747Z,100207.78
2023-04-28T23:01:53.352Z,100214.72
2023-04-28T23:04:21.849Z,100212.09
2023-04-28T23:06:51.174Z,100216.06
2023-04-28T23:09:19.646Z,100210.25
2023-04-28T23:11:47.326Z,100219.63
2023-04-28T23:14:15.007Z,100207.00
2023-04-28T23:16:43.150Z,100217.69
2023-04-28T23:19:10.838Z,100211.59
2023-04-28T23:21:38.574Z,100217.16
2023-04-28T23:24:08.439Z,100218.88
2023-04-28T23:26:36.798Z,100226.56
2023-04-28T23:29:04.507Z,100219.00
2023-04-28T23:31:32.391Z,100231.84
2023-04-28T23:34:00.700Z,100214.84
2023-04-28T23:36:28.348Z,100237.91
2023-04-28T23:38:56.509Z,100237.47
2023-04-28T23:41:26.101Z,100223.00
2023-04-28T23:43:53.796Z,100230.75
2023-04-28T23:46:21.542Z,100243.31
2023-04-28T23:48:49.246Z,100230.47
2023-04-28T23:51:16.903Z,100244.03
2023-04-28T23:53:44.811Z,100249.28
2023-04-28T23:56:29.089Z,100240.69
2023-04-28T23:58:57.112Z,100244.34
